Time;durP1;ratioP1;P1;durP2;ratioP2;P2;SDS_P1;SDS_P2;PMS_P1;PMS_P2;Temp;Humidity;BMP_temperature;BMP_pressure;BME280_temperature;BME280_humidity;BME280_pressure;Samples;Min_cycle;Max_cycle;Signal;HPM_P1;HPM_P2
2023/07/25 00:01:05;;;;;;;1.50;0.90;;;17.20;98.20;;;;;;4846210;29;20474;-82
2023/07/25 00:03:32;;;;;;;1.50;1.00;;;17.20;98.20;;;;;;4873042;29;20475;-81
2023/07/25 00:06:01;;;;;;;1.50;1.00;;;17.20;98.20;;;;;;4849984;29;20499;-82
2023/07/25 00:08:27;;;;;;;1.50;1.00;;;17.10;98.20;;;;;;4874017;29;20496;-82
2023/07/25 00:10:54;;;;;;;1.50;1.00;;;17.10;98.20;;;;;;4845849;29;20491;-82
2023/07/25 00:13:22;;;;;;;1.50;1.00;;;17.10;98.20;;;;;;4867585;29;20470;-82
2023/07/25 00:15:50;;;;;;;1.50;1.00;;;17.10;98.20;;;;;;4848027;29;20509;-82
2023/07/25 00:18:17;;;;;;;1.50;1.00;;;17.00;98.20;;;;;;4873384;29;20474;-82
2023/07/25 00:20:44;;;;;;;1.50;1.00;;;17.00;98.20;;;;;;4852738;29;21002;-82
2023/07/25 00:23:11;;;;;;;1.50;1.00;;;17.00;98.20;;;;;;4859235;29;20492;-82
2023/07/25 00:25:38;;;;;;;1.50;1.00;;;16.90;98.20;;;;;;4854104;29;20491;-82
2023/07/25 00:28:05;;;;;;;1.50;0.90;;;16.90;98.20;;;;;;4861064;29;20490;-83
2023/07/25 00:30:33;;;;;;;1.50;1.00;;;16.90;98.20;;;;;;4850889;29;20472;-82
2023/07/25 00:33:00;;;;;;;1.50;1.00;;;16.90;98.20;;;;;;4864173;29;20553;-83
2023/07/25 00:35:26;;;;;;;1.50;0.90;;;16.90;98.20;;;;;;4851146;29;20498;-82
2023/07/25 00:37:53;;;;;;;1.50;1.00;;;16.90;98.20;;;;;;4859867;29;20490;-82
2023/07/25 00:40:20;;;;;;;1.50;1.10;;;16.90;98.20;;;;;;4854250;29;20549;-81
2023/07/25 00:42:47;;;;;;;1.50;0.93;;;16.90;98.20;;;;;;4866279;29;20981;-81
2023/07/25 00:45:14;;;;;;;1.50;1.00;;;16.90;98.20;;;;;;4857663;29;20496;-81
2023/07/25 00:47:42;;;;;;;1.50;0.90;;;16.90;98.20;;;;;;4861256;29;20543;-80
2023/07/25 00:50:10;;;;;;;1.50;1.00;;;16.90;98.20;;;;;;4856522;29;20480;-81
2023/07/25 00:52:37;;;;;;;1.50;1.00;;;16.90;98.20;;;;;;4863035;29;20486;-81
2023/07/25 00:55:08;;;;;;;1.50;1.00;;;16.90;98.20;;;;;;4859330;29;20475;-81
2023/07/25 00:57:35;;;;;;;1.50;0.90;;;16.90;98.20;;;;;;4861179;29;20503;-81
2023/07/25 01:00:02;;;;;;;1.50;1.00;;;16.90;98.20;;;;;;4853979;29;20544;-81
2023/07/25 01:02:29;;;;;;;1.50;1.00;;;16.90;98.20;;;;;;4861382;29;20514;-80
2023/07/25 01:04:57;;;;;;;1.50;1.00;;;16.90;98.20;;;;;;4861068;29;20495;-81
2023/07/25 01:07:24;;;;;;;1.50;1.00;;;16.90;98.20;;;;;;4861405;29;20493;-82
2023/07/25 01:09:51;;;;;;;1.50;1.00;;;16.90;98.20;;;;;;4850126;29;20479;-80
2023/07/25 01:12:18;;;;;;;1.70;1.47;;;16.90;98.20;;;;;;4860734;29;20601;-81
2023/07/25 01:14:45;;;;;;;1.50;0.97;;;16.90;98.20;;;;;;4860414;29;20994;-82
2023/07/25 01:17:13;;;;;;;1.50;1.00;;;16.80;98.20;;;;;;4858729;29;20942;-82
2023/07/25 01:19:42;;;;;;;1.50;1.00;;;16.80;98.20;;;;;;4862260;29;20483;-82
2023/07/25 01:22:11;;;;;;;1.50;1.00;;;16.80;98.20;;;;;;4862747;29;20831;-81
2023/07/25 01:24:44;;;;;;;1.50;1.00;;;16.80;98.20;;;;;;4855930;29;20494;-81
2023/07/25 01:27:11;;;;;;;1.50;1.00;;;16.80;98.20;;;;;;4872708;29;21036;-81
2023/07/25 01:29:39;;;;;;;1.50;1.00;;;16.80;98.20;;;;;;4866996;29;20478;-80
2023/07/25 01:32:07;;;;;;;1.50;0.90;;;16.80;98.20;;;;;;4853863;29;20487;-82
2023/07/25 01:34:35;;;;;;;1.50;1.00;;;16.80;98.20;;;;;;4867799;29;20484;-82
2023/07/25 01:37:03;;;;;;;1.50;1.00;;;16.70;98.20;;;;;;4863963;29;20549;-81
2023/07/25 01:39:30;;;;;;;1.50;1.00;;;16.70;98.20;;;;;;4869217;29;20515;-81
2023/07/25 01:41:58;;;;;;;1.50;1.03;;;16.70;98.20;;;;;;4866924;29;20498;-82
2023/07/25 01:44:25;;;;;;;1.50;1.00;;;16.60;98.20;;;;;;4873024;29;20491;-80
2023/07/25 01:46:51;;;;;;;1.50;1.00;;;16.60;98.20;;;;;;4864686;29;20494;-80
2023/07/25 01:49:18;;;;;;;1.50;0.90;;;16.60;98.20;;;;;;4864612;29;20539;-80
2023/07/25 01:51:45;;;;;;;1.50;0.90;;;16.50;98.20;;;;;;4865590;29;21005;-80
2023/07/25 01:54:12;;;;;;;1.50;1.00;;;16.50;98.20;;;;;;4874313;29;20867;-79
2023/07/25 01:56:39;;;;;;;1.50;1.00;;;16.50;98.20;;;;;;4860828;29;20490;-79
2023/07/25 01:59:07;;;;;;;1.50;1.00;;;16.50;98.20;;;;;;4866679;29;20467;-82
2023/07/25 02:01:37;;;;;;;1.50;0.90;;;16.50;98.20;;;;;;4849980;29;20483;-81
2023/07/25 02:04:04;;;;;;;1.50;0.90;;;16.50;98.20;;;;;;4867204;29;20487;-82
2023/07/25 02:06:30;;;;;;;1.50;1.03;;;16.50;98.20;;;;;;4857358;29;20604;-81
2023/07/25 02:08:57;;;;;;;1.50;0.90;;;16.50;98.20;;;;;;4870209;29;20475;-82
2023/07/25 02:11:24;;;;;;;1.50;1.10;;;16.50;98.20;;;;;;4856441;29;20485;-81
2023/07/25 02:13:51;;;;;;;1.50;0.90;;;16.40;98.20;;;;;;4872382;29;20473;-82
2023/07/25 02:16:19;;;;;;;1.50;1.00;;;16.40;98.20;;;;;;4855954;29;20482;-82
2023/07/25 02:18:46;;;;;;;1.50;1.00;;;16.40;98.20;;;;;;4871411;29;20495;-80
2023/07/25 02:21:13;;;;;;;1.50;1.00;;;16.30;98.20;;;;;;4853050;29;20490;-81
2023/07/25 02:23:40;;;;;;;1.50;1.00;;;16.30;98.20;;;;;;4879426;29;20570;-81
2023/07/25 02:26:06;;;;;;;1.50;1.00;;;16.30;98.20;;;;;;4859315;29;20471;-81
2023/07/25 02:28:33;;;;;;;1.50;0.90;;;16.20;98.20;;;;;;4877006;29;20524;-81
2023/07/25 02:31:00;;;;;;;1.50;1.00;;;16.10;98.20;;;;;;4846054;29;21032;-81
2023/07/25 02:33:28;;;;;;;1.53;1.10;;;16.10;98.20;;;;;;4872628;29;20540;-80
2023/07/25 02:35:57;;;;;;;1.53;1.10;;;16.00;98.20;;;;;;4855480;29;20571;-80
2023/07/25 02:38:25;;;;;;;1.50;0.90;;;16.00;98.20;;;;;;4868136;29;20499;-82
2023/07/25 02:40:51;;;;;;;1.50;0.90;;;15.90;98.20;;;;;;4857562;29;20558;-81
2023/07/25 02:43:18;;;;;;;1.50;1.00;;;15.90;98.20;;;;;;4882550;29;20463;-81
2023/07/25 02:45:45;;;;;;;1.50;1.00;;;15.80;98.20;;;;;;4867037;29;20523;-81
2023/07/25 02:48:12;;;;;;;1.50;1.00;;;15.80;98.20;;;;;;4852138;29;20623;-81
2023/07/25 02:50:40;;;;;;;1.50;0.93;;;15.80;98.20;;;;;;4860791;29;20483;-81
2023/07/25 02:53:06;;;;;;;1.50;1.00;;;15.80;98.20;;;;;;4863085;29;20497;-81
2023/07/25 02:55:33;;;;;;;1.50;1.00;;;15.80;98.20;;;;;;4860628;29;20476;-81
2023/07/25 02:58:00;;;;;;;1.50;1.00;;;15.80;98.20;;;;;;4863153;29;20615;-82
2023/07/25 03:00:27;;;;;;;1.50;0.93;;;15.80;98.20;;;;;;4862918;29;20467;-79
2023/07/25 03:02:53;;;;;;;1.50;1.00;;;15.80;98.20;;;;;;4852867;29;20482;-83
2023/07/25 03:05:21;;;;;;;1.50;1.00;;;15.80;98.20;;;;;;4860141;29;20487;-80
2023/07/25 03:07:49;;;;;;;1.53;1.00;;;15.80;98.20;;;;;;4864880;29;20634;-80
2023/07/25 03:10:16;;;;;;;1.50;1.00;;;15.80;98.20;;;;;;4861369;29;20473;-81
2023/07/25 03:12:42;;;;;;;1.50;1.00;;;15.80;98.20;;;;;;4857208;29;20483;-80
2023/07/25 03:15:10;;;;;;;1.50;1.00;;;15.80;98.20;;;;;;4855379;29;20499;-80
2023/07/25 03:17:37;;;;;;;1.57;1.00;;;15.80;98.20;;;;;;4857011;29;21036;-80
2023/07/25 03:20:04;;;;;;;1.60;1.10;;;15.80;98.20;;;;;;4857538;29;20803;-80
2023/07/25 03:22:31;;;;;;;1.50;1.00;;;15.70;98.20;;;;;;4866676;29;20519;-80
2023/07/25 03:24:59;;;;;;;1.50;1.00;;;15.70;98.20;;;;;;4865169;29;20506;-81
2023/07/25 03:27:26;;;;;;;1.50;0.90;;;15.70;98.20;;;;;;4860175;29;20491;-80
2023/07/25 03:29:53;;;;;;;2.30;1.60;;;15.60;98.20;;;;;;4861202;29;20477;-81
2023/07/25 03:32:20;;;;;;;1.50;1.10;;;15.60;98.20;;;;;;4863288;29;20785;-79
2023/07/25 03:34:47;;;;;;;1.50;1.00;;;15.60;98.20;;;;;;4865169;29;20495;-80
2023/07/25 03:37:14;;;;;;;1.53;1.00;;;15.50;98.20;;;;;;4862066;29;20482;-79
2023/07/25 03:39:40;;;;;;;1.50;1.00;;;15.50;98.20;;;;;;4854599;29;20488;-80
2023/07/25 03:42:09;;;;;;;1.53;1.00;;;15.50;98.20;;;;;;4857822;29;20601;-81
2023/07/25 03:44:36;;;;;;;1.50;1.00;;;15.50;98.20;;;;;;4864682;29;20499;-80
2023/07/25 03:47:03;;;;;;;1.50;1.00;;;15.50;98.20;;;;;;4854268;29;20543;-81
2023/07/25 03:49:29;;;;;;;1.50;1.00;;;15.40;98.20;;;;;;4858004;29;20550;-81
2023/07/25 03:51:56;;;;;;;1.60;1.10;;;15.40;98.20;;;;;;4845828;29;20522;-80
2023/07/25 03:54:25;;;;;;;1.50;1.00;;;15.30;98.20;;;;;;4857950;29;20490;-80
2023/07/25 03:56:52;;;;;;;1.53;1.10;;;15.30;98.20;;;;;;4850922;29;21014;-81
2023/07/25 03:59:21;;;;;;;1.50;1.00;;;15.30;98.20;;;;;;4862594;29;20478;-81
2023/07/25 04:01:48;;;;;;;1.50;1.10;;;15.30;98.20;;;;;;4849801;29;20867;-80
2023/07/25 04:04:15;;;;;;;1.50;1.00;;;15.20;98.20;;;;;;4858768;29;20488;-80
2023/07/25 04:06:42;;;;;;;1.50;1.00;;;15.20;98.20;;;;;;4855292;29;20550;-80
2023/07/25 04:09:09;;;;;;;1.50;1.00;;;15.20;98.20;;;;;;4864388;29;20475;-80
2023/07/25 04:11:35;;;;;;;1.50;1.00;;;15.20;98.20;;;;;;4852352;29;20605;-81
2023/07/25 04:14:02;;;;;;;1.50;1.00;;;15.20;98.20;;;;;;4863206;29;20484;-80
2023/07/25 04:16:32;;;;;;;1.50;1.03;;;15.10;98.20;;;;;;4853173;29;20494;-82
2023/07/25 04:19:00;;;;;;;1.50;1.00;;;15.10;98.20;;;;;;4865786;29;20491;-82
2023/07/25 04:21:27;;;;;;;1.50;1.00;;;15.10;98.20;;;;;;4852140;29;20482;-80
2023/07/25 04:23:53;;;;;;;1.50;1.00;;;15.10;98.20;;;;;;4866025;29;20472;-81
2023/07/25 04:26:20;;;;;;;1.50;1.00;;;15.10;98.20;;;;;;4854488;29;20526;-80
2023/07/25 04:28:48;;;;;;;1.50;1.00;;;15.10;98.20;;;;;;4877752;29;20467;-80
2023/07/25 04:31:15;;;;;;;1.50;1.00;;;15.10;98.20;;;;;;4853604;29;20487;-81
2023/07/25 04:33:43;;;;;;;1.50;1.00;;;15.10;98.20;;;;;;4869253;29;20629;-82
2023/07/25 04:36:09;;;;;;;1.50;0.90;;;15.10;98.20;;;;;;4844489;29;20491;-81
2023/07/25 04:38:36;;;;;;;1.50;0.90;;;15.10;98.20;;;;;;4867037;29;20469;-81
2023/07/25 04:41:03;;;;;;;1.50;1.00;;;15.10;98.20;;;;;;4840343;29;20499;-81
2023/07/25 04:43:30;;;;;;;1.50;1.00;;;15.10;98.20;;;;;;4867227;29;20968;-82
2023/07/25 04:45:57;;;;;;;1.50;1.00;;;15.10;98.20;;;;;;4841475;29;20531;-81
2023/07/25 04:48:23;;;;;;;1.50;1.10;;;15.10;98.20;;;;;;4862687;29;20476;-80
2023/07/25 04:50:51;;;;;;;1.50;1.00;;;15.20;98.20;;;;;;4844160;29;20471;-80
2023/07/25 04:53:18;;;;;;;1.50;1.00;;;15.20;98.20;;;;;;4867675;29;20758;-81
2023/07/25 04:55:45;;;;;;;1.50;1.00;;;15.20;98.20;;;;;;4858283;29;20484;-80
2023/07/25 04:58:12;;;;;;;1.50;1.00;;;15.30;98.20;;;;;;4850036;29;20861;-79
2023/07/25 05:00:39;;;;;;;1.50;1.10;;;15.30;98.20;;;;;;4852473;29;20515;-79
2023/07/25 05:03:06;;;;;;;1.50;1.00;;;15.40;98.20;;;;;;4861769;29;20573;-79
2023/07/25 05:05:33;;;;;;;1.50;1.00;;;15.40;98.20;;;;;;4856767;29;20488;-79
2023/07/25 05:08:01;;;;;;;1.50;1.00;;;15.50;98.20;;;;;;4848668;29;20515;-79
2023/07/25 05:10:28;;;;;;;1.50;1.00;;;15.60;98.20;;;;;;4846399;29;20471;-78
2023/07/25 05:12:55;;;;;;;1.50;1.00;;;15.70;98.20;;;;;;4847047;29;20594;-80
2023/07/25 05:15:22;;;;;;;1.50;1.00;;;15.80;98.20;;;;;;4857267;29;20577;-79
2023/07/25 05:17:49;;;;;;;1.50;1.00;;;16.00;98.20;;;;;;4862726;29;20584;-79
2023/07/25 05:20:16;;;;;;;1.53;1.10;;;16.10;98.20;;;;;;4850622;29;20472;-80
2023/07/25 05:22:43;;;;;;;1.50;0.90;;;16.30;98.20;;;;;;4859472;29;20486;-80
2023/07/25 05:25:11;;;;;;;1.50;1.10;;;16.40;98.20;;;;;;4855810;29;20511;-80
2023/07/25 05:27:38;;;;;;;1.50;1.00;;;16.60;98.20;;;;;;4860168;29;20508;-80
2023/07/25 05:30:06;;;;;;;1.80;1.43;;;16.80;98.20;;;;;;4854086;29;20482;-81
2023/07/25 05:32:32;;;;;;;1.50;1.00;;;17.00;98.20;;;;;;4859742;29;20684;-81
2023/07/25 05:34:59;;;;;;;1.53;0.93;;;17.10;98.20;;;;;;4859442;29;20487;-80
2023/07/25 05:37:35;;;;;;;1.50;1.00;;;17.20;98.20;;;;;;4861184;29;20716;-82
2023/07/25 05:40:02;;;;;;;1.50;0.90;;;17.20;98.20;;;;;;4853126;29;20531;-79
2023/07/25 05:42:30;;;;;;;1.50;0.90;;;17.30;98.20;;;;;;4859359;29;20542;-82
2023/07/25 05:45:01;;;;;;;1.60;1.20;;;17.20;98.20;;;;;;4859272;29;20495;-80
2023/07/25 05:47:28;;;;;;;1.50;0.90;;;17.20;98.20;;;;;;4859178;29;20486;-80
2023/07/25 05:49:55;;;;;;;1.50;1.00;;;17.10;98.20;;;;;;4857104;29;20495;-80
2023/07/25 05:52:22;;;;;;;1.50;1.00;;;17.10;98.20;;;;;;4857942;29;20490;-80
2023/07/25 05:54:49;;;;;;;1.50;0.90;;;17.10;98.20;;;;;;4860981;29;20501;-80
2023/07/25 05:57:19;;;;;;;1.50;0.90;;;17.10;98.20;;;;;;4858259;29;20550;-80
2023/07/25 05:59:48;;;;;;;1.50;0.90;;;17.10;98.20;;;;;;4856821;29;20507;-79
2023/07/25 06:02:16;;;;;;;1.50;1.00;;;17.10;98.20;;;;;;4859761;29;20492;-79
2023/07/25 06:04:46;;;;;;;1.50;0.90;;;17.10;98.20;;;;;;4860939;29;20494;-82
2023/07/25 06:07:14;;;;;;;1.50;1.00;;;17.20;98.20;;;;;;4859553;29;20485;-80
2023/07/25 06:09:40;;;;;;;1.50;0.90;;;17.30;98.20;;;;;;4858438;29;20484;-79
2023/07/25 06:12:08;;;;;;;1.50;1.00;;;17.40;98.20;;;;;;4857983;29;21630;-79
2023/07/25 06:14:35;;;;;;;1.50;0.90;;;17.50;98.20;;;;;;4859330;29;20895;-80
2023/07/25 06:17:04;;;;;;;1.53;1.00;;;17.60;98.20;;;;;;4856451;29;20512;-80
2023/07/25 06:19:46;;;;;;;1.50;0.90;;;17.70;98.20;;;;;;4859831;29;20464;-79
2023/07/25 06:22:14;;;;;;;1.50;0.90;;;17.70;98.20;;;;;;4859801;29;20578;-80
2023/07/25 06:24:41;;;;;;;1.50;1.00;;;17.70;98.20;;;;;;4861698;29;20496;-80
2023/07/25 06:27:08;;;;;;;1.50;1.00;;;17.70;98.20;;;;;;4857722;29;20487;-79
2023/07/25 06:29:35;;;;;;;1.50;1.00;;;17.80;98.20;;;;;;4859415;29;20475;-80
2023/07/25 06:32:03;;;;;;;1.50;0.90;;;17.80;98.20;;;;;;4845408;29;20498;-81
2023/07/25 06:34:29;;;;;;;1.50;0.90;;;17.90;98.20;;;;;;4868013;29;20480;-80
2023/07/25 06:36:56;;;;;;;1.50;1.00;;;18.10;98.20;;;;;;4858733;29;20490;-80
2023/07/25 06:39:23;;;;;;;1.50;0.90;;;18.30;98.20;;;;;;4864456;29;20471;-81
2023/07/25 06:41:50;;;;;;;1.50;1.00;;;18.40;98.20;;;;;;4859471;29;20597;-81
2023/07/25 06:44:19;;;;;;;1.50;1.00;;;18.40;98.20;;;;;;4863881;29;20495;-81
2023/07/25 06:46:45;;;;;;;1.50;0.90;;;18.40;98.20;;;;;;4855132;29;20491;-81
2023/07/25 06:49:14;;;;;;;1.50;1.00;;;18.40;98.20;;;;;;4866031;29;20468;-80
2023/07/25 06:51:40;;;;;;;1.50;0.90;;;18.30;98.20;;;;;;4855047;29;20565;-80
2023/07/25 06:54:07;;;;;;;1.50;0.90;;;18.30;98.20;;;;;;4863694;29;21255;-80
2023/07/25 06:56:34;;;;;;;1.50;0.90;;;18.20;98.20;;;;;;4853245;29;20944;-83
2023/07/25 06:59:17;;;;;;;1.50;0.90;;;18.30;98.20;;;;;;4865386;29;20531;-81
2023/07/25 07:01:43;;;;;;;1.50;0.90;;;18.40;98.20;;;;;;4851634;29;20482;-81
2023/07/25 07:04:10;;;;;;;1.57;1.00;;;18.50;98.20;;;;;;4859074;29;20583;-81
2023/07/25 07:06:39;;;;;;;1.50;0.90;;;18.50;98.20;;;;;;4849913;29;20486;-81
2023/07/25 07:09:05;;;;;;;1.50;0.90;;;18.70;98.20;;;;;;4860326;29;20463;-81
2023/07/25 07:11:32;;;;;;;1.50;0.90;;;18.90;98.20;;;;;;4856252;29;20485;-81
2023/07/25 07:13:59;;;;;;;1.50;0.90;;;19.20;98.20;;;;;;4870765;29;20506;-82
2023/07/25 07:16:26;;;;;;;1.50;0.90;;;19.70;98.20;;;;;;4854688;29;20597;-82
2023/07/25 07:18:53;;;;;;;1.50;0.90;;;19.90;98.20;;;;;;4868373;29;21049;-81
2023/07/25 07:21:19;;;;;;;1.50;0.93;;;20.10;98.20;;;;;;4853341;29;20489;-81
2023/07/25 07:23:48;;;;;;;1.50;0.90;;;20.20;97.50;;;;;;4869257;29;20499;-81
2023/07/25 07:26:15;;;;;;;1.50;0.90;;;20.50;98.20;;;;;;4854446;29;20486;-81
2023/07/25 07:28:41;;;;;;;1.50;1.00;;;20.70;97.20;;;;;;4870186;29;20500;-82
2023/07/25 07:31:11;;;;;;;1.50;0.90;;;20.70;94.80;;;;;;4846360;29;20483;-82
2023/07/25 07:33:38;;;;;;;1.50;1.00;;;20.70;94.80;;;;;;4868830;29;20475;-81
2023/07/25 07:36:06;;;;;;;1.50;0.90;;;20.70;95.40;;;;;;4847006;29;20475;-82
2023/07/25 07:38:32;;;;;;;1.50;0.90;;;20.50;94.80;;;;;;4863127;29;20527;-82
2023/07/25 07:41:01;;;;;;;1.50;0.90;;;20.40;94.90;;;;;;4848485;29;20534;-82
2023/07/25 07:43:27;;;;;;;1.50;0.90;;;20.20;94.30;;;;;;4870806;29;20471;-83
2023/07/25 07:45:57;;;;;;;1.50;0.90;;;19.90;96.00;;;;;;4847316;29;20551;-84
2023/07/25 07:48:24;;;;;;;1.50;0.90;;;19.80;95.80;;;;;;4873388;29;20491;-84
2023/07/25 07:50:53;;;;;;;1.50;0.90;;;19.60;96.80;;;;;;4850593;29;20467;-80
2023/07/25 07:53:20;;;;;;;1.50;0.90;;;19.50;97.90;;;;;;4871273;29;20472;-82
2023/07/25 07:55:47;;;;;;;1.50;0.90;;;19.40;98.20;;;;;;4856501;29;21089;-82
2023/07/25 07:58:30;;;;;;;1.50;1.00;;;19.30;98.20;;;;;;4847554;29;20510;-84
2023/07/25 08:00:57;;;;;;;1.50;0.90;;;19.30;98.10;;;;;;4850427;29;20472;-82
2023/07/25 08:03:24;;;;;;;1.50;0.90;;;19.30;96.30;;;;;;4874128;29;20463;-83
2023/07/25 08:05:57;;;;;;;1.50;0.90;;;19.40;97.30;;;;;;4851095;29;20586;-81
2023/07/25 08:08:24;;;;;;;1.50;0.90;;;19.40;97.50;;;;;;4868991;29;21030;-82
2023/07/25 08:10:50;;;;;;;1.50;0.90;;;19.40;98.00;;;;;;4845619;29;20475;-82
2023/07/25 08:13:19;;;;;;;1.50;0.90;;;19.40;98.00;;;;;;4872692;29;20732;-81
2023/07/25 08:15:46;;;;;;;1.50;1.00;;;19.40;97.80;;;;;;4852536;29;20484;-83
2023/07/25 08:18:13;;;;;;;1.50;0.90;;;19.30;97.40;;;;;;4861878;29;20995;-84
2023/07/25 08:23:35;;;;;;;1.50;0.90;;;19.30;98.20;;;;;;4845309;29;20487;-81
2023/07/25 08:26:02;;;;;;;1.50;0.90;;;19.20;98.20;;;;;;4847091;29;20534;-82
2023/07/25 08:28:30;;;;;;;1.50;0.90;;;19.10;98.20;;;;;;4870740;29;20492;-82
2023/07/25 08:31:00;;;;;;;1.50;0.90;;;19.00;98.20;;;;;;4846077;29;20471;-82
2023/07/25 08:33:27;;;;;;;1.60;1.10;;;18.90;98.20;;;;;;4866449;29;20475;-81
2023/07/25 08:35:54;;;;;;;1.50;0.90;;;18.80;98.20;;;;;;4844255;29;20500;-81
2023/07/25 08:38:21;;;;;;;1.50;0.90;;;18.80;98.20;;;;;;4867321;29;20518;-81
2023/07/25 08:40:59;;;;;;;1.60;1.10;;;18.70;98.20;;;;;;4847825;29;20476;-81
2023/07/25 08:43:29;;;;;;;1.50;0.90;;;18.70;98.20;;;;;;4871429;29;20481;-81
2023/07/25 08:45:58;;;;;;;1.50;0.90;;;18.60;98.20;;;;;;4841823;29;20529;-81
2023/07/25 08:48:26;;;;;;;1.50;0.90;;;18.60;98.20;;;;;;4864699;29;20495;-82
2023/07/25 08:50:57;;;;;;;1.50;0.90;;;18.50;98.20;;;;;;4840496;29;20468;-81
2023/07/25 08:53:25;;;;;;;1.50;0.90;;;18.60;98.20;;;;;;4864892;29;21047;-81
2023/07/25 08:55:53;;;;;;;1.50;1.00;;;18.70;98.20;;;;;;4844190;29;20487;-81
2023/07/25 08:58:20;;;;;;;1.50;0.90;;;18.70;98.20;;;;;;4867418;29;20491;-81
2023/07/25 09:00:48;;;;;;;1.50;0.90;;;18.80;98.20;;;;;;4855522;29;20471;-81
2023/07/25 09:03:17;;;;;;;1.43;0.90;;;18.90;98.20;;;;;;4842372;29;20490;-82
2023/07/25 09:05:44;;;;;;;1.50;0.90;;;19.00;98.20;;;;;;4856790;29;20483;-81
2023/07/25 09:08:11;;;;;;;1.50;0.90;;;19.20;98.20;;;;;;4863788;29;20491;-82
2023/07/25 09:10:38;;;;;;;1.50;0.90;;;19.30;98.20;;;;;;4852960;29;20548;-81
2023/07/25 09:13:05;;;;;;;1.47;0.90;;;19.40;98.20;;;;;;4862271;29;20486;-82
2023/07/25 09:15:32;;;;;;;1.50;0.90;;;19.60;97.80;;;;;;4855730;29;20487;-82
2023/07/25 09:17:59;;;;;;;1.50;0.90;;;19.60;97.20;;;;;;4862226;29;20548;-82
2023/07/25 09:20:27;;;;;;;1.50;0.90;;;19.60;97.50;;;;;;4852272;29;20471;-81
2023/07/25 09:22:54;;;;;;;1.50;0.90;;;19.60;97.30;;;;;;4862121;29;20498;-81
2023/07/25 09:25:21;;;;;;;1.50;0.90;;;19.60;96.10;;;;;;4853400;29;20498;-82
2023/07/25 09:27:54;;;;;;;1.43;0.90;;;19.70;96.90;;;;;;4862200;29;20498;-82
2023/07/25 09:30:21;;;;;;;1.50;0.90;;;19.70;95.90;;;;;;4850548;29;20469;-81
2023/07/25 09:32:51;;;;;;;1.43;0.90;;;19.70;96.70;;;;;;4862435;29;20511;-81
2023/07/25 09:35:25;;;;;;;1.50;0.90;;;19.70;95.20;;;;;;4854931;29;20518;-83
2023/07/25 09:37:54;;;;;;;1.50;0.90;;;19.50;95.80;;;;;;4861660;29;20477;-82
2023/07/25 09:40:22;;;;;;;1.60;1.27;;;19.40;95.50;;;;;;4853876;29;20928;-82
2023/07/25 09:42:51;;;;;;;1.50;0.90;;;19.40;96.90;;;;;;4862003;29;21045;-82
2023/07/25 09:45:21;;;;;;;1.40;0.90;;;19.30;97.00;;;;;;4857034;29;20514;-82
2023/07/25 09:47:53;;;;;;;1.50;0.90;;;19.30;95.90;;;;;;4862273;29;20490;-84
2023/07/25 09:50:28;;;;;;;1.50;0.90;;;19.20;94.10;;;;;;4856146;29;20490;-86
2023/07/25 09:53:01;;;;;;;1.50;1.00;;;19.20;94.80;;;;;;4863432;29;20485;-79
2023/07/25 09:55:28;;;;;;;1.50;0.90;;;19.10;94.80;;;;;;4856217;29;20534;-82
2023/07/25 09:57:55;;;;;;;1.50;1.00;;;19.10;96.40;;;;;;4861256;29;20981;-82
2023/07/25 10:00:28;;;;;;;1.50;0.90;;;19.20;96.40;;;;;;4852839;29;20467;-83
2023/07/25 10:03:00;;;;;;;1.47;0.90;;;19.30;96.20;;;;;;4857706;29;20549;-78
2023/07/25 10:05:28;;;;;;;1.50;0.90;;;19.40;96.20;;;;;;4849600;29;20945;-82
2023/07/25 10:07:57;;;;;;;1.60;1.30;;;19.50;95.00;;;;;;4859435;29;20490;-83
2023/07/25 10:10:31;;;;;;;1.50;0.93;;;19.60;94.70;;;;;;4851762;29;21050;-83
2023/07/25 10:13:05;;;;;;;1.47;0.90;;;19.80;94.40;;;;;;4859977;29;20482;-82
2023/07/25 10:15:33;;;;;;;1.47;0.90;;;20.00;93.30;;;;;;4850018;29;20784;-83
2023/07/25 10:18:17;;;;;;;1.50;0.90;;;20.20;92.90;;;;;;4861578;29;20489;-83
2023/07/25 10:20:44;;;;;;;1.50;0.90;;;20.50;91.60;;;;;;4853220;29;20844;-80
2023/07/25 10:23:20;;;;;;;1.50;0.90;;;20.80;88.60;;;;;;4860568;29;20495;-83
2023/07/25 10:25:47;;;;;;;1.50;0.90;;;21.00;91.10;;;;;;4854184;29;20505;-83
2023/07/25 10:28:28;;;;;;;1.50;0.90;;;21.20;90.40;;;;;;4844586;29;20497;-81
2023/07/25 10:30:55;;;;;;;1.50;0.90;;;21.50;88.70;;;;;;4848181;29;20459;-81
2023/07/25 10:33:25;;;;;;;1.50;0.87;;;21.80;87.30;;;;;;4868025;29;20482;-84
2023/07/25 10:39:35;;;;;;;1.50;0.90;;;22.20;84.80;;;;;;4801329;29;20472;-82
2023/07/25 10:42:02;;;;;;;1.50;0.90;;;22.50;83.10;;;;;;4836802;29;20488;-82
2023/07/25 10:44:37;;;;;;;1.47;0.80;;;22.80;83.10;;;;;;4855457;29;21078;-82
2023/07/25 10:47:45;;;;;;;1.50;0.90;;;23.10;82.40;;;;;;4851087;29;20490;-83
2023/07/25 10:50:29;;;;;;;1.50;0.90;;;23.60;79.40;;;;;;4851191;29;20472;-84
2023/07/25 10:52:57;;;;;;;1.50;0.90;;;24.00;78.50;;;;;;4840401;29;20490;-83
2023/07/25 10:55:26;;;;;;;1.47;0.83;;;23.90;79.10;;;;;;4852322;29;20499;-83
2023/07/25 10:58:11;;;;;;;1.47;0.90;;;23.90;79.30;;;;;;4861403;29;20913;-84
2023/07/25 11:00:38;;;;;;;1.50;0.80;;;23.90;77.20;;;;;;4850041;29;20494;-83
2023/07/25 11:03:27;;;;;;;1.43;0.80;;;23.90;79.70;;;;;;4843096;29;20523;-84
2023/07/25 11:06:32;;;;;;;1.47;0.87;;;24.10;79.10;;;;;;4841801;29;20492;-83
2023/07/25 11:09:04;;;;;;;1.50;0.90;;;24.50;80.20;;;;;;4848673;29;21100;-84
2023/07/25 11:14:34;;;;;;;1.47;0.90;;;24.60;78.30;;;;;;4848033;29;20498;-83
2023/07/25 11:17:09;;;;;;;1.60;1.17;;;24.40;76.50;;;;;;4848865;29;20919;-84
2023/07/25 11:19:40;;;;;;;1.50;0.90;;;24.10;78.50;;;;;;4850116;29;20501;-84
2023/07/25 11:22:12;;;;;;;1.47;0.87;;;23.90;80.00;;;;;;4838460;29;20645;-85
2023/07/25 11:24:48;;;;;;;1.50;0.83;;;23.70;80.90;;;;;;4846845;29;20502;-84
2023/07/25 11:27:19;;;;;;;1.50;0.90;;;23.60;78.50;;;;;;4840985;29;20509;-85
2023/07/25 11:29:46;;;;;;;1.47;0.90;;;23.50;79.10;;;;;;4851837;29;20499;-84
2023/07/25 11:32:13;;;;;;;1.50;1.20;;;23.60;78.30;;;;;;4846411;29;20503;-84
2023/07/25 11:34:40;;;;;;;1.43;0.80;;;23.90;78.50;;;;;;4849053;29;20508;-83
2023/07/25 11:37:13;;;;;;;1.50;0.90;;;24.30;80.00;;;;;;4848661;29;21000;-82
2023/07/25 11:39:40;;;;;;;1.47;0.90;;;24.50;78.10;;;;;;4855553;29;20512;-84
2023/07/25 11:42:10;;;;;;;1.47;0.90;;;24.40;77.20;;;;;;4852947;29;20512;-84
2023/07/25 11:44:39;;;;;;;1.50;0.80;;;24.20;77.90;;;;;;4853477;29;20487;-84
2023/07/25 11:47:39;;;;;;;1.50;0.80;;;23.90;81.80;;;;;;4851329;29;21141;-83
2023/07/25 11:50:10;;;;;;;1.43;0.90;;;23.50;82.40;;;;;;4854611;29;20571;-84
2023/07/25 11:52:39;;;;;;;1.43;0.90;;;23.20;83.10;;;;;;4851271;29;20490;-83
2023/07/25 11:55:09;;;;;;;1.50;0.80;;;23.00;84.60;;;;;;4853386;29;21061;-83
2023/07/25 11:57:50;;;;;;;1.47;0.80;;;22.80;86.50;;;;;;4834591;29;20596;-84
2023/07/25 12:00:27;;;;;;;1.47;0.90;;;22.90;85.90;;;;;;4854155;29;20919;-82
2023/07/25 12:02:58;;;;;;;1.47;0.80;;;22.90;84.90;;;;;;4861871;29;20488;-85
2023/07/25 12:05:37;;;;;;;1.50;0.90;;;23.00;84.90;;;;;;4849014;29;21140;-84
2023/07/25 12:08:41;;;;;;;1.50;0.90;;;23.00;81.80;;;;;;4858177;29;20536;-83
2023/07/25 12:11:11;;;;;;;1.43;0.90;;;23.10;84.10;;;;;;4842232;29;20470;-84
2023/07/25 12:13:57;;;;;;;1.47;0.80;;;23.20;80.60;;;;;;4865591;29;20475;-84
2023/07/25 12:16:28;;;;;;;1.50;0.80;;;23.10;79.90;;;;;;4843185;29;20985;-85
2023/07/25 12:19:06;;;;;;;1.50;1.13;;;23.00;81.20;;;;;;4860490;29;20488;-84
2023/07/25 12:21:35;;;;;;;1.47;0.90;;;22.90;82.00;;;;;;4847627;29;20929;-84
2023/07/25 12:24:05;;;;;;;1.47;0.90;;;22.80;82.60;;;;;;4854227;29;20563;-86
2023/07/25 12:26:47;;;;;;;1.47;0.90;;;22.70;80.90;;;;;;4845835;29;20506;-85
2023/07/25 12:29:46;;;;;;;1.47;0.80;;;22.50;82.80;;;;;;4851927;29;20896;-84
2023/07/25 12:32:47;;;;;;;1.47;0.90;;;22.20;83.80;;;;;;4852729;29;20482;-84
2023/07/25 12:35:15;;;;;;;1.47;0.87;;;22.00;85.60;;;;;;4840679;29;20632;-86
2023/07/25 12:37:42;;;;;;;1.47;0.90;;;21.90;87.70;;;;;;4853292;29;20529;-87
2023/07/25 12:40:10;;;;;;;1.47;0.87;;;21.80;88.00;;;;;;4855053;29;20907;-83
2023/07/25 12:42:40;;;;;;;1.47;0.90;;;21.70;86.70;;;;;;4862643;29;21017;-85
2023/07/25 12:45:07;;;;;;;1.50;0.90;;;21.60;88.00;;;;;;4853461;29;20995;-84
2023/07/25 12:47:34;;;;;;;1.43;0.90;;;21.50;88.30;;;;;;4855010;29;20731;-83
2023/07/25 12:50:05;;;;;;;1.47;0.90;;;21.30;88.40;;;;;;4854572;29;21022;-84
2023/07/25 12:52:41;;;;;;;1.50;0.90;;;21.20;88.80;;;;;;4860685;29;20528;-83
2023/07/25 12:55:13;;;;;;;1.50;0.90;;;21.10;89.20;;;;;;4853200;29;20498;-83
2023/07/25 12:57:40;;;;;;;1.50;0.90;;;21.00;89.90;;;;;;4860240;29;20573;-84
2023/07/25 13:00:08;;;;;;;1.50;0.90;;;20.90;90.10;;;;;;4854146;29;20543;-83
2023/07/25 13:02:46;;;;;;;1.50;0.90;;;20.90;90.50;;;;;;4856222;29;20570;-83
2023/07/25 13:05:13;;;;;;;1.50;0.90;;;20.80;89.20;;;;;;4852490;29;20924;-83
2023/07/25 13:07:43;;;;;;;1.47;0.90;;;20.80;89.60;;;;;;4854293;29;21545;-83